Time;durP1;ratioP1;P1;durP2;ratioP2;P2;SDS_P1;SDS_P2;PMS_P1;PMS_P2;Temp;Humidity;BMP_temperature;BMP_pressure;BME280_temperature;BME280_humidity;BME280_pressure;Samples;Min_cycle;Max_cycle;Signal;HPM_P1;HPM_P2
2021/01/16 00:01:35;;;;;;;31.23;17.40;;;;;;;;;;5033095;28;20080;-72
2021/01/16 00:04:01;;;;;;;33.30;16.83;;;;;;;;;;5033746;28;20030;-73
2021/01/16 00:06:30;;;;;;;30.27;13.38;;;;;;;;;;5033540;28;20116;-73
2021/01/16 00:08:56;;;;;;;36.70;16.45;;;;;;;;;;5033269;28;20017;-72
2021/01/16 00:11:21;;;;;;;37.67;17.25;;;;;;;;;;5031917;28;20133;-72
2021/01/16 00:13:47;;;;;;;49.42;19.70;;;;;;;;;;5032054;28;20100;-72
2021/01/16 00:16:13;;;;;;;47.88;19.90;;;;;;;;;;5033459;28;20026;-72
2021/01/16 00:18:39;;;;;;;44.38;18.70;;;;;;;;;;5033111;28;20442;-72
2021/01/16 00:21:05;;;;;;;32.25;14.35;;;;;;;;;;5033356;28;20026;-72
2021/01/16 00:23:30;;;;;;;24.60;11.85;;;;;;;;;;5033183;28;20514;-72
2021/01/16 00:25:57;;;;;;;17.95;9.82;;;;;;;;;;5033446;28;20024;-73
2021/01/16 00:28:24;;;;;;;18.50;9.55;;;;;;;;;;5033184;28;20435;-72
2021/01/16 00:30:50;;;;;;;15.50;8.88;;;;;;;;;;5033309;28;20499;-72
2021/01/16 00:33:16;;;;;;;17.52;9.13;;;;;;;;;;5032819;28;20025;-72
2021/01/16 00:35:42;;;;;;;20.35;11.15;;;;;;;;;;5032076;28;20377;-72
2021/01/16 00:38:08;;;;;;;21.00;11.57;;;;;;;;;;5033155;28;20033;-72
2021/01/16 00:40:33;;;;;;;19.98;10.45;;;;;;;;;;5033163;28;20036;-72
2021/01/16 00:43:04;;;;;;;23.10;11.38;;;;;;;;;;5033347;28;20526;-72
2021/01/16 00:45:30;;;;;;;21.33;10.90;;;;;;;;;;5037159;28;20029;-72
2021/01/16 00:47:55;;;;;;;20.33;10.65;;;;;;;;;;5036739;28;20040;-73
2021/01/16 00:50:21;;;;;;;18.38;10.55;;;;;;;;;;5035542;28;20112;-72
2021/01/16 00:52:54;;;;;;;19.88;10.70;;;;;;;;;;5035895;28;20516;-72
2021/01/16 00:55:20;;;;;;;29.80;14.10;;;;;;;;;;5035781;28;20500;-73
2021/01/16 00:57:47;;;;;;;24.85;11.63;;;;;;;;;;5035740;28;20017;-73
2021/01/16 01:00:13;;;;;;;24.50;11.60;;;;;;;;;;5035375;28;20083;-73
2021/01/16 01:02:44;;;;;;;23.58;11.48;;;;;;;;;;5036095;28;20073;-73
2021/01/16 01:05:10;;;;;;;18.77;10.85;;;;;;;;;;5035149;28;20393;-72
2021/01/16 01:07:36;;;;;;;19.60;9.77;;;;;;;;;;5036652;28;20037;-72
2021/01/16 01:10:03;;;;;;;18.02;11.07;;;;;;;;;;5036484;28;20029;-73
2021/01/16 01:12:28;;;;;;;18.55;9.63;;;;;;;;;;5036563;28;20025;-73
2021/01/16 01:14:55;;;;;;;18.42;9.88;;;;;;;;;;5036431;28;20083;-72
2021/01/16 01:17:20;;;;;;;16.27;9.32;;;;;;;;;;5036367;28;20064;-72
2021/01/16 01:19:46;;;;;;;18.83;9.57;;;;;;;;;;5036319;28;20053;-73
2021/01/16 01:22:11;;;;;;;16.05;8.65;;;;;;;;;;5036225;28;20460;-73
2021/01/16 01:24:38;;;;;;;16.45;8.82;;;;;;;;;;5036324;28;20022;-73
2021/01/16 01:27:04;;;;;;;15.48;8.80;;;;;;;;;;5034676;28;20017;-72
2021/01/16 01:29:30;;;;;;;15.88;8.55;;;;;;;;;;5036413;28;20057;-73
2021/01/16 01:31:55;;;;;;;15.98;9.30;;;;;;;;;;5036248;28;20447;-73
2021/01/16 01:34:21;;;;;;;15.93;8.45;;;;;;;;;;5036076;28;20471;-72
2021/01/16 01:36:46;;;;;;;19.20;8.95;;;;;;;;;;5036246;28;20126;-73
2021/01/16 01:39:12;;;;;;;17.80;9.18;;;;;;;;;;5036140;28;20060;-73
2021/01/16 01:41:38;;;;;;;16.13;8.88;;;;;;;;;;5034339;28;20380;-73
2021/01/16 01:44:04;;;;;;;20.20;9.55;;;;;;;;;;5036014;28;20164;-73
2021/01/16 01:46:30;;;;;;;21.00;10.35;;;;;;;;;;5035831;28;20017;-73
2021/01/16 01:48:55;;;;;;;20.48;11.05;;;;;;;;;;5035654;28;20057;-73
2021/01/16 01:51:22;;;;;;;21.20;10.80;;;;;;;;;;5035465;28;20472;-72
2021/01/16 01:53:49;;;;;;;19.38;9.90;;;;;;;;;;5035346;28;20077;-72
2021/01/16 01:56:16;;;;;;;14.27;8.50;;;;;;;;;;5035620;28;20021;-73
2021/01/16 01:58:42;;;;;;;18.65;9.25;;;;;;;;;;5034799;28;20029;-70
2021/01/16 02:01:10;;;;;;;16.70;9.10;;;;;;;;;;5035354;28;20019;-70
2021/01/16 02:03:36;;;;;;;15.80;8.73;;;;;;;;;;5034056;28;20052;-70
2021/01/16 02:06:02;;;;;;;15.10;8.52;;;;;;;;;;5034247;28;20356;-73
2021/01/16 02:08:28;;;;;;;19.08;9.57;;;;;;;;;;5035288;28;20113;-73
2021/01/16 02:10:55;;;;;;;16.20;8.70;;;;;;;;;;5035485;28;20033;-72
2021/01/16 02:13:21;;;;;;;16.30;8.73;;;;;;;;;;5035350;28;20033;-72
2021/01/16 02:15:58;;;;;;;15.48;9.05;;;;;;;;;;5034962;28;20083;-73
2021/01/16 02:18:24;;;;;;;18.60;9.40;;;;;;;;;;5033854;28;20067;-72
2021/01/16 02:20:51;;;;;;;16.65;9.00;;;;;;;;;;5034995;28;20418;-72
2021/01/16 02:23:20;;;;;;;15.02;8.88;;;;;;;;;;5034551;28;20025;-72
2021/01/16 02:25:53;;;;;;;17.70;9.02;;;;;;;;;;5033884;28;20017;-72
2021/01/16 02:28:24;;;;;;;16.33;8.95;;;;;;;;;;5034036;28;20025;-73
2021/01/16 02:30:50;;;;;;;15.90;9.20;;;;;;;;;;5034983;28;20029;-73
2021/01/16 02:33:17;;;;;;;15.25;8.70;;;;;;;;;;5034907;28;20048;-73
2021/01/16 02:35:52;;;;;;;16.75;9.15;;;;;;;;;;5034882;28;20018;-74
2021/01/16 02:38:44;;;;;;;18.25;10.45;;;;;;;;;;5034751;28;20025;-73
2021/01/16 02:41:32;;;;;;;20.15;10.40;;;;;;;;;;5032990;28;20056;-70
2021/01/16 02:44:15;;;;;;;20.67;10.77;;;;;;;;;;5033500;28;20037;-70
2021/01/16 02:46:50;;;;;;;20.65;10.70;;;;;;;;;;5033595;28;20041;-70
2021/01/16 02:49:21;;;;;;;20.23;10.75;;;;;;;;;;5034783;28;20034;-70
2021/01/16 02:51:55;;;;;;;21.45;11.73;;;;;;;;;;5033149;28;20757;-70
2021/01/16 02:54:22;;;;;;;21.55;12.55;;;;;;;;;;5034554;28;20388;-73
2021/01/16 02:56:47;;;;;;;24.95;12.63;;;;;;;;;;5034479;28;20116;-72
2021/01/16 02:59:13;;;;;;;23.33;13.27;;;;;;;;;;5034418;28;20611;-72
2021/01/16 03:01:39;;;;;;;24.20;13.23;;;;;;;;;;5034176;28;20013;-72
2021/01/16 03:04:05;;;;;;;24.23;12.00;;;;;;;;;;5033339;28;20045;-72
2021/01/16 03:06:33;;;;;;;24.90;13.10;;;;;;;;;;5033503;28;20022;-72
2021/01/16 03:09:01;;;;;;;23.05;12.85;;;;;;;;;;5033153;28;20037;-72
2021/01/16 03:11:26;;;;;;;25.02;12.55;;;;;;;;;;5033988;28;20104;-72
2021/01/16 03:13:54;;;;;;;23.25;11.73;;;;;;;;;;5034003;28;20112;-72
2021/01/16 03:16:25;;;;;;;22.73;12.30;;;;;;;;;;5033938;28;20025;-72
2021/01/16 03:18:55;;;;;;;21.40;11.55;;;;;;;;;;5033977;28;20034;-72
2021/01/16 03:21:20;;;;;;;20.05;10.93;;;;;;;;;;5034165;28;20107;-72
2021/01/16 03:23:46;;;;;;;22.67;12.07;;;;;;;;;;5032854;28;20538;-72
2021/01/16 03:26:11;;;;;;;22.35;12.60;;;;;;;;;;5032849;28;20052;-72
2021/01/16 03:28:36;;;;;;;23.58;11.77;;;;;;;;;;5034031;28;20476;-71
2021/01/16 03:31:02;;;;;;;22.75;12.40;;;;;;;;;;5033708;28;20147;-73
2021/01/16 03:33:28;;;;;;;25.25;12.75;;;;;;;;;;5033712;28;20041;-72
2021/01/16 03:35:53;;;;;;;30.52;14.85;;;;;;;;;;5033729;28;20021;-72
2021/01/16 03:38:18;;;;;;;30.55;15.60;;;;;;;;;;5033567;28;20029;-72
2021/01/16 03:40:47;;;;;;;25.30;13.05;;;;;;;;;;5033866;28;20155;-72
2021/01/16 03:43:13;;;;;;;30.38;14.98;;;;;;;;;;5033917;28;20026;-73
2021/01/16 03:45:38;;;;;;;29.00;14.32;;;;;;;;;;5032405;28;20022;-73
2021/01/16 03:48:04;;;;;;;27.25;14.10;;;;;;;;;;5032722;28;20024;-73
2021/01/16 03:50:29;;;;;;;27.65;13.93;;;;;;;;;;5033668;28;20018;-73
2021/01/16 03:52:55;;;;;;;25.38;13.57;;;;;;;;;;5032194;28;20038;-73
2021/01/16 03:55:20;;;;;;;24.83;13.55;;;;;;;;;;5033483;28;20032;-72
2021/01/16 03:57:46;;;;;;;24.60;13.15;;;;;;;;;;5032377;28;20029;-70
2021/01/16 04:00:11;;;;;;;25.10;13.65;;;;;;;;;;5033111;28;20025;-70
2021/01/16 04:02:37;;;;;;;25.52;13.73;;;;;;;;;;5032712;28;20072;-70
2021/01/16 04:05:03;;;;;;;27.20;13.60;;;;;;;;;;5032236;28;20057;-70
2021/01/16 04:07:31;;;;;;;28.08;14.00;;;;;;;;;;5033545;28;20025;-70
2021/01/16 04:09:57;;;;;;;28.58;14.45;;;;;;;;;;5033088;28;20064;-70
2021/01/16 04:12:23;;;;;;;24.60;13.82;;;;;;;;;;5033749;28;20065;-70
2021/01/16 04:14:48;;;;;;;36.13;18.52;;;;;;;;;;5033670;28;20029;-70
2021/01/16 04:17:14;;;;;;;79.53;42.63;;;;;;;;;;5033985;28;20025;-70
2021/01/16 04:19:39;;;;;;;104.13;51.53;;;;;;;;;;5037330;28;20383;-71
2021/01/16 04:22:05;;;;;;;94.13;49.00;;;;;;;;;;5036412;28;20034;-71
2021/01/16 04:24:31;;;;;;;86.18;40.33;;;;;;;;;;5037284;28;20018;-71
2021/01/16 04:26:56;;;;;;;94.05;43.90;;;;;;;;;;5037293;28;20033;-71
2021/01/16 04:29:22;;;;;;;96.22;42.78;;;;;;;;;;5037155;28;20040;-71
2021/01/16 04:31:48;;;;;;;91.60;42.97;;;;;;;;;;5036988;28;20029;-71
2021/01/16 04:34:13;;;;;;;79.30;38.55;;;;;;;;;;5036988;28;20040;-71
2021/01/16 04:36:39;;;;;;;72.63;35.08;;;;;;;;;;5036921;28;20509;-71
2021/01/16 04:39:04;;;;;;;51.65;24.60;;;;;;;;;;5036911;28;20503;-71
2021/01/16 04:41:31;;;;;;;31.88;16.98;;;;;;;;;;5035539;28;20068;-71
2021/01/16 04:43:57;;;;;;;26.00;14.15;;;;;;;;;;5036108;28;20021;-70
2021/01/16 04:46:23;;;;;;;26.17;13.95;;;;;;;;;;5036883;28;20083;-70
2021/01/16 04:48:55;;;;;;;24.48;12.93;;;;;;;;;;5036889;28;20021;-71
2021/01/16 04:51:22;;;;;;;20.35;11.35;;;;;;;;;;5035959;28;20053;-71
2021/01/16 04:53:49;;;;;;;19.35;10.75;;;;;;;;;;5035800;28;20372;-70
2021/01/16 04:56:15;;;;;;;18.55;10.73;;;;;;;;;;5036601;28;20068;-70
2021/01/16 04:58:40;;;;;;;16.40;9.60;;;;;;;;;;5036603;28;20017;-70
2021/01/16 05:01:07;;;;;;;17.00;10.32;;;;;;;;;;5035638;28;20021;-70
2021/01/16 05:03:36;;;;;;;15.27;9.48;;;;;;;;;;5036509;28;20389;-71
2021/01/16 05:06:06;;;;;;;16.77;9.40;;;;;;;;;;5036284;28;20029;-71
2021/01/16 05:08:31;;;;;;;16.70;9.27;;;;;;;;;;5036510;28;20025;-71
2021/01/16 05:10:57;;;;;;;13.63;8.90;;;;;;;;;;5036675;28;20032;-71
2021/01/16 05:13:29;;;;;;;15.73;9.05;;;;;;;;;;5036482;28;20022;-71
2021/01/16 05:15:58;;;;;;;15.50;9.40;;;;;;;;;;5036595;28;20041;-71
2021/01/16 05:18:25;;;;;;;14.15;9.68;;;;;;;;;;5036695;28;20053;-74
2021/01/16 05:20:51;;;;;;;17.45;10.43;;;;;;;;;;5036342;28;20069;-74
2021/01/16 05:23:16;;;;;;;16.95;9.57;;;;;;;;;;5036264;28;20045;-71
2021/01/16 05:25:44;;;;;;;16.30;10.00;;;;;;;;;;5034827;28;20370;-71
2021/01/16 05:28:10;;;;;;;15.50;9.57;;;;;;;;;;5036278;28;20019;-71
2021/01/16 05:30:56;;;;;;;16.95;10.55;;;;;;;;;;5035159;28;20042;-70
2021/01/16 05:33:23;;;;;;;17.92;10.52;;;;;;;;;;5035945;28;20481;-71
2021/01/16 05:35:49;;;;;;;17.42;10.88;;;;;;;;;;5035966;28;20436;-70
2021/01/16 05:38:16;;;;;;;51.30;26.08;;;;;;;;;;5036019;28;20025;-70
2021/01/16 05:40:42;;;;;;;83.82;38.83;;;;;;;;;;5036013;28;20052;-70
2021/01/16 05:43:07;;;;;;;86.82;40.63;;;;;;;;;;5035043;28;20025;-71
2021/01/16 05:45:36;;;;;;;56.75;28.70;;;;;;;;;;5035724;28;20349;-71
2021/01/16 05:48:05;;;;;;;29.77;16.95;;;;;;;;;;5035902;28;20061;-71
2021/01/16 05:50:34;;;;;;;17.80;11.15;;;;;;;;;;5035913;28;20021;-70
2021/01/16 05:52:59;;;;;;;16.98;10.95;;;;;;;;;;5035951;28;20029;-70
2021/01/16 05:55:25;;;;;;;18.75;11.35;;;;;;;;;;5034633;28;20017;-70
2021/01/16 05:57:59;;;;;;;15.90;10.18;;;;;;;;;;5034463;28;20064;-72
2021/01/16 06:00:26;;;;;;;17.17;10.80;;;;;;;;;;5035649;28;20095;-69
2021/01/16 06:02:52;;;;;;;16.63;10.48;;;;;;;;;;5035209;28;20057;-70
2021/01/16 06:05:24;;;;;;;16.02;10.13;;;;;;;;;;5034024;28;20419;-70
2021/01/16 06:07:51;;;;;;;13.95;9.23;;;;;;;;;;5035734;28;20033;-70
2021/01/16 06:10:17;;;;;;;15.70;8.70;;;;;;;;;;5034069;28;20060;-70
2021/01/16 06:12:44;;;;;;;13.32;8.57;;;;;;;;;;5035179;28;20090;-71
2021/01/16 06:15:16;;;;;;;13.23;8.60;;;;;;;;;;5033844;28;20033;-70
2021/01/16 06:17:49;;;;;;;12.18;8.82;;;;;;;;;;5034070;28;20039;-70
2021/01/16 06:20:19;;;;;;;11.27;8.15;;;;;;;;;;5035089;28;20103;-73
2021/01/16 06:22:49;;;;;;;14.88;8.82;;;;;;;;;;5034993;28;20039;-70
2021/01/16 06:25:19;;;;;;;12.63;8.90;;;;;;;;;;5030167;28;20030;-70
2021/01/16 06:27:52;;;;;;;14.32;9.75;;;;;;;;;;5021146;28;20021;-70
2021/01/16 06:30:27;;;;;;;14.13;9.00;;;;;;;;;;5033864;28;20022;-70
2021/01/16 06:32:53;;;;;;;14.32;9.43;;;;;;;;;;5035088;28;20033;-70
2021/01/16 06:35:19;;;;;;;16.75;9.98;;;;;;;;;;5034664;28;20033;-70
2021/01/16 06:37:45;;;;;;;14.68;9.65;;;;;;;;;;5033698;28;20439;-70
2021/01/16 06:40:33;;;;;;;14.80;9.65;;;;;;;;;;5034825;28;20080;-70
2021/01/16 06:42:59;;;;;;;14.73;9.43;;;;;;;;;;5034601;28;20033;-73
2021/01/16 06:45:26;;;;;;;17.10;10.18;;;;;;;;;;5034701;28;20027;-72
2021/01/16 06:47:59;;;;;;;16.77;10.48;;;;;;;;;;5033402;28;20476;-73
2021/01/16 06:50:25;;;;;;;13.82;10.13;;;;;;;;;;5034849;28;20426;-73
2021/01/16 06:52:51;;;;;;;15.63;10.05;;;;;;;;;;5034747;28;20049;-72
2021/01/16 06:55:18;;;;;;;16.80;10.90;;;;;;;;;;5034453;28;20376;-72
2021/01/16 06:57:43;;;;;;;15.23;10.00;;;;;;;;;;5033066;28;20727;-72
2021/01/16 07:00:09;;;;;;;18.30;11.30;;;;;;;;;;5033754;28;20029;-72
2021/01/16 07:02:35;;;;;;;17.02;10.80;;;;;;;;;;5033982;28;20487;-72
2021/01/16 07:05:03;;;;;;;21.05;11.77;;;;;;;;;;5033409;28;20026;-72
2021/01/16 07:07:32;;;;;;;16.40;10.10;;;;;;;;;;5034670;28;20450;-72
2021/01/16 07:09:59;;;;;;;17.48;11.07;;;;;;;;;;5032730;28;20123;-72
2021/01/16 07:12:25;;;;;;;18.48;11.63;;;;;;;;;;5033519;28;20092;-72
2021/01/16 07:14:50;;;;;;;16.10;10.88;;;;;;;;;;5032965;28;20076;-72
2021/01/16 07:17:17;;;;;;;16.33;10.15;;;;;;;;;;5032712;28;20029;-72
2021/01/16 07:19:43;;;;;;;18.08;11.10;;;;;;;;;;5034047;28;20036;-72
2021/01/16 07:22:09;;;;;;;16.85;10.52;;;;;;;;;;5032123;28;20021;-73
2021/01/16 07:24:35;;;;;;;18.50;11.07;;;;;;;;;;5033999;28;20109;-72
2021/01/16 07:27:00;;;;;;;19.85;11.25;;;;;;;;;;5033327;28;20013;-72
2021/01/16 07:29:26;;;;;;;15.35;10.00;;;;;;;;;;5032617;28;20040;-72
2021/01/16 07:31:52;;;;;;;15.93;10.27;;;;;;;;;;5032512;28;20522;-72
2021/01/16 07:34:18;;;;;;;16.55;11.68;;;;;;;;;;5033811;28;20080;-72
2021/01/16 07:36:43;;;;;;;19.77;12.35;;;;;;;;;;5032597;28;20382;-73
2021/01/16 07:39:11;;;;;;;17.98;11.80;;;;;;;;;;5032831;28;20160;-73
2021/01/16 07:41:37;;;;;;;17.55;11.77;;;;;;;;;;5033367;28;20448;-73
2021/01/16 07:44:11;;;;;;;15.68;11.05;;;;;;;;;;5032143;28;20103;-72
2021/01/16 07:46:41;;;;;;;21.05;13.20;;;;;;;;;;5032470;28;20032;-73
2021/01/16 07:49:07;;;;;;;20.48;12.23;;;;;;;;;;5033092;28;20030;-72
2021/01/16 07:51:37;;;;;;;13.43;9.90;;;;;;;;;;5032646;28;20088;-70
2021/01/16 07:54:12;;;;;;;14.93;9.63;;;;;;;;;;5032926;28;20025;-70
2021/01/16 07:56:44;;;;;;;15.43;9.65;;;;;;;;;;5032969;28;20044;-70
2021/01/16 07:59:10;;;;;;;15.25;10.02;;;;;;;;;;5033427;28;20029;-70
2021/01/16 08:01:45;;;;;;;14.30;9.82;;;;;;;;;;5033390;28;20048;-70
2021/01/16 08:04:46;;;;;;;16.50;10.65;;;;;;;;;;5033574;28;20075;-70
2021/01/16 08:07:13;;;;;;;15.23;9.60;;;;;;;;;;4992086;28;20046;-70
2021/01/16 08:09:39;;;;;;;15.13;9.88;;;;;;;;;;5025291;28;20033;-70
2021/01/16 08:12:07;;;;;;;16.80;11.23;;;;;;;;;;5032035;28;20121;-70
2021/01/16 08:14:33;;;;;;;16.40;10.32;;;;;;;;;;5033428;28;20027;-70
2021/01/16 08:17:01;;;;;;;14.75;10.38;;;;;;;;;;5033164;28;20116;-70
2021/01/16 08:19:45;;;;;;;14.95;10.23;;;;;;;;;;5033102;28;20032;-70
2021/01/16 08:22:15;;;;;;;12.73;9.25;;;;;;;;;;5033150;28;20025;-70
2021/01/16 08:24:54;;;;;;;14.70;10.67;;;;;;;;;;5033031;28;20036;-70
2021/01/16 08:27:22;;;;;;;13.85;10.07;;;;;;;;;;5033138;28;20436;-72
2021/01/16 08:29:48;;;;;;;14.38;9.80;;;;;;;;;;5033246;28;20017;-72
2021/01/16 08:32:13;;;;;;;16.38;9.98;;;;;;;;;;5033091;28;20034;-72
2021/01/16 08:34:49;;;;;;;14.98;9.25;;;;;;;;;;5032118;28;20030;-72
2021/01/16 08:37:27;;;;;;;12.82;9.18;;;;;;;;;;5032966;28;20029;-72
2021/01/16 08:39:53;;;;;;;11.82;8.40;;;;;;;;;;5032711;28;20030;-72
2021/01/16 08:42:24;;;;;;;12.07;7.95;;;;;;;;;;5032727;28;20075;-72
2021/01/16 08:44:54;;;;;;;14.90;9.95;;;;;;;;;;5031733;28;20029;-72
2021/01/16 08:47:20;;;;;;;16.27;10.40;;;;;;;;;;5031876;28;20107;-72
2021/01/16 08:49:45;;;;;;;14.45;9.70;;;;;;;;;;5032872;28;20084;-71
2021/01/16 08:52:28;;;;;;;16.05;9.90;;;;;;;;;;5033026;28;20029;-72
2021/01/16 08:55:00;;;;;;;17.50;11.00;;;;;;;;;;5033130;28;20077;-72
2021/01/16 08:57:29;;;;;;;12.27;9.13;;;;;;;;;;5033103;28;20032;-72
2021/01/16 08:59:55;;;;;;;14.07;9.48;;;;;;;;;;5032671;28;20025;-72
2021/01/16 09:02:20;;;;;;;13.98;8.57;;;;;;;;;;5032223;28;20037;-71
2021/01/16 09:04:46;;;;;;;13.43;8.60;;;;;;;;;;5032812;28;20039;-72
2021/01/16 09:07:14;;;;;;;18.90;11.48;;;;;;;;;;5036570;28;20037;-72
2021/01/16 09:09:51;;;;;;;14.02;9.32;;;;;;;;;;5036601;28;20091;-72
2021/01/16 09:12:22;;;;;;;15.75;10.48;;;;;;;;;;5036610;28;20044;-72
2021/01/16 09:14:49;;;;;;;16.65;11.05;;;;;;;;;;5036812;28;20030;-69
2021/01/16 09:17:15;;;;;;;13.98;8.48;;;;;;;;;;5036321;28;20017;-68
2021/01/16 09:19:41;;;;;;;11.07;7.65;;;;;;;;;;5036241;28;20088;-68
2021/01/16 09:22:18;;;;;;;12.05;8.25;;;;;;;;;;5034892;28;20021;-68
2021/01/16 09:24:43;;;;;;;17.27;11.30;;;;;;;;;;5036147;28;20376;-68
2021/01/16 09:27:21;;;;;;;17.98;11.68;;;;;;;;;;5036706;28;20018;-69
2021/01/16 09:29:46;;;;;;;13.27;9.35;;;;;;;;;;5034740;28;20393;-68
2021/01/16 09:32:23;;;;;;;10.70;8.32;;;;;;;;;;5035931;28;20021;-68
2021/01/16 09:34:49;;;;;;;13.05;8.63;;;;;;;;;;5034366;28;20034;-68
2021/01/16 09:37:22;;;;;;;11.73;8.20;;;;;;;;;;5035048;28;20078;-68
2021/01/16 09:39:58;;;;;;;13.68;9.95;;;;;;;;;;5035799;28;20056;-68
2021/01/16 09:42:24;;;;;;;55.88;31.15;;;;;;;;;;5036360;28;20029;-68
2021/01/16 09:44:53;;;;;;;18.45;12.68;;;;;;;;;;5035850;28;20020;-69
2021/01/16 09:47:38;;;;;;;13.38;10.48;;;;;;;;;;5034085;28;20047;-66
2021/01/16 09:50:03;;;;;;;10.02;7.35;;;;;;;;;;5035861;28;20033;-66
2021/01/16 09:52:30;;;;;;;9.38;6.78;;;;;;;;;;5035184;28;20075;-66
2021/01/16 09:54:55;;;;;;;9.55;7.05;;;;;;;;;;5035864;28;20112;-72
2021/01/16 09:57:47;;;;;;;9.45;7.95;;;;;;;;;;5034152;28;20077;-71
2021/01/16 10:00:27;;;;;;;9.52;7.82;;;;;;;;;;5033314;28;20049;-72
2021/01/16 10:02:58;;;;;;;10.20;7.50;;;;;;;;;;5020513;28;20048;-72
2021/01/16 10:05:29;;;;;;;10.48;7.15;;;;;;;;;;5035214;28;20099;-72
2021/01/16 10:07:57;;;;;;;8.90;6.57;;;;;;;;;;5035308;28;20025;-72
2021/01/16 10:10:23;;;;;;;8.55;6.53;;;;;;;;;;5034044;28;20030;-72
2021/01/16 10:12:49;;;;;;;11.02;7.30;;;;;;;;;;5035199;28;20025;-72
2021/01/16 10:15:15;;;;;;;8.90;6.68;;;;;;;;;;5034856;28;20104;-72
2021/01/16 10:17:42;;;;;;;11.30;7.50;;;;;;;;;;5034088;28;20041;-72
2021/01/16 10:20:14;;;;;;;11.52;7.65;;;;;;;;;;5035266;28;20017;-72
2021/01/16 10:22:47;;;;;;;7.55;6.00;;;;;;;;;;5035064;28;20021;-72
2021/01/16 10:25:15;;;;;;;10.23;7.43;;;;;;;;;;5035033;28;20022;-72
2021/01/16 10:27:41;;;;;;;9.60;7.18;;;;;;;;;;5035057;28;20100;-72
2021/01/16 10:30:17;;;;;;;8.05;7.15;;;;;;;;;;5034713;28;20132;-72
2021/01/16 10:32:44;;;;;;;10.48;6.70;;;;;;;;;;5035084;28;20037;-71
2021/01/16 10:35:16;;;;;;;8.13;6.72;;;;;;;;;;5034980;28;20108;-72
2021/01/16 10:37:42;;;;;;;8.00;6.30;;;;;;;;;;5035189;28;20112;-72
2021/01/16 10:40:08;;;;;;;11.30;7.50;;;;;;;;;;5034786;28;20108;-72
2021/01/16 10:42:48;;;;;;;9.93;6.85;;;;;;;;;;5034645;28;20037;-72
2021/01/16 10:45:15;;;;;;;8.15;5.97;;;;;;;;;;5033313;28;20036;-72
2021/01/16 10:47:43;;;;;;;7.93;6.30;;;;;;;;;;5033246;28;20021;-72
2021/01/16 10:50:24;;;;;;;6.13;5.30;;;;;;;;;;5034687;28;20036;-72
2021/01/16 10:53:01;;;;;;;13.07;8.50;;;;;;;;;;5034256;28;20054;-72
2021/01/16 10:55:46;;;;;;;15.30;10.40;;;;;;;;;;5029590;28;20034;-72
2021/01/16 10:58:20;;;;;;;13.43;8.70;;;;;;;;;;5033134;28;20034;-72
2021/01/16 11:00:52;;;;;;;14.50;9.10;;;;;;;;;;5034429;28;20484;-72
2021/01/16 11:03:18;;;;;;;9.52;7.03;;;;;;;;;;5033960;28;20080;-72
2021/01/16 11:05:48;;;;;;;13.30;8.13;;;;;;;;;;5034546;28;20053;-71
2021/01/16 11:08:19;;;;;;;9.50;6.57;;;;;;;;;;5033331;28;20478;-72
2021/01/16 11:10:46;;;;;;;9.23;6.82;;;;;;;;;;5033951;28;20034;-72
2021/01/16 11:13:22;;;;;;;9.00;6.80;;;;;;;;;;5033669;28;20014;-72
2021/01/16 11:16:06;;;;;;;7.80;6.57;;;;;;;;;;5034259;28;20108;-72
2021/01/16 11:18:34;;;;;;;7.88;6.15;;;;;;;;;;5032902;28;20103;-72
2021/01/16 11:21:00;;;;;;;9.32;6.32;;;;;;;;;;5034174;28;20476;-72
2021/01/16 11:23:30;;;;;;;8.85;6.68;;;;;;;;;;5034184;28;20111;-72
2021/01/16 11:25:56;;;;;;;9.57;6.50;;;;;;;;;;5034123;28;20017;-72
2021/01/16 11:28:23;;;;;;;7.90;6.40;;;;;;;;;;5024012;28;20030;-72
2021/01/16 11:30:50;;;;;;;8.52;5.95;;;;;;;;;;5029991;28;20017;-72
2021/01/16 11:33:26;;;;;;;9.57;6.65;;;;;;;;;;5032545;28;20037;-72
2021/01/16 11:36:04;;;;;;;8.95;6.53;;;;;;;;;;5033766;28;20026;-72
2021/01/16 11:38:42;;;;;;;6.65;5.15;;;;;;;;;;5032222;28;20392;-72
2021/01/16 11:41:08;;;;;;;6.70;5.13;;;;;;;;;;5033849;28;20026;-72
2021/01/16 11:43:34;;;;;;;8.43;6.65;;;;;;;;;;5033907;28;20021;-72
2021/01/16 11:46:13;;;;;;;10.93;7.20;;;;;;;;;;5033749;28;20491;-72
2021/01/16 11:48:40;;;;;;;11.35;7.10;;;;;;;;;;5033444;28;20025;-72
2021/01/16 11:51:12;;;;;;;10.93;7.60;;;;;;;;;;5033607;28;20121;-72
2021/01/16 11:53:38;;;;;;;7.22;5.70;;;;;;;;;;5033392;28;20026;-71
2021/01/16 11:56:04;;;;;;;6.95;5.53;;;;;;;;;;5033484;28;20383;-71
2021/01/16 11:58:31;;;;;;;6.72;5.22;;;;;;;;;;5033421;28;20116;-72
2021/01/16 12:00:59;;;;;;;7.32;5.50;;;;;;;;;;5031944;28;20033;-71
2021/01/16 12:03:25;;;;;;;6.00;4.43;;;;;;;;;;5033016;28;20128;-72
2021/01/16 12:05:51;;;;;;;7.55;5.25;;;;;;;;;;5033446;28;20110;-71
2021/01/16 12:08:20;;;;;;;8.50;5.65;;;;;;;;;;5033296;28;20018;-72
2021/01/16 12:10:48;;;;;;;8.27;5.85;;;;;;;;;;5033249;28;20480;-71
2021/01/16 12:13:13;;;;;;;6.25;4.95;;;;;;;;;;5033312;28;20030;-72
2021/01/16 12:15:39;;;;;;;29.35;13.07;;;;;;;;;;5033174;28;20360;-72
2021/01/16 12:18:06;;;;;;;10.60;6.50;;;;;;;;;;5033122;28;20033;-72
2021/01/16 12:20:33;;;;;;;7.85;5.13;;;;;;;;;;5033329;28;20368;-72
2021/01/16 12:23:00;;;;;;;7.07;5.57;;;;;;;;;;5032984;28;20037;-72
2021/01/16 12:25:33;;;;;;;6.75;4.53;;;;;;;;;;5032055;28;20452;-72
2021/01/16 12:28:00;;;;;;;6.95;4.32;;;;;;;;;;5032411;28;20034;-69
2021/01/16 12:30:33;;;;;;;6.18;4.45;;;;;;;;;;5024781;28;20045;-71
2021/01/16 12:32:58;;;;;;;5.20;4.25;;;;;;;;;;5030284;28;20415;-72
2021/01/16 12:35:25;;;;;;;8.63;5.68;;;;;;;;;;5030001;28;20025;-71
2021/01/16 12:37:51;;;;;;;5.68;3.80;;;;;;;;;;5028393;28;20446;-72
2021/01/16 12:40:18;;;;;;;5.75;4.45;;;;;;;;;;5034198;28;20038;-72
2021/01/16 12:42:44;;;;;;;3.85;3.40;;;;;;;;;;5033891;28;20040;-68
2021/01/16 12:45:11;;;;;;;6.30;3.53;;;;;;;;;;5034246;28;20018;-66
2021/01/16 12:47:38;;;;;;;4.38;3.33;;;;;;;;;;5034123;28;20037;-66
2021/01/16 12:50:05;;;;;;;6.60;4.13;;;;;;;;;;5034165;28;20028;-65
2021/01/16 12:52:30;;;;;;;6.38;3.70;;;;;;;;;;5033197;28;20036;-65
2021/01/16 12:55:00;;;;;;;4.57;3.53;;;;;;;;;;5034126;28;20140;-65
2021/01/16 12:57:33;;;;;;;7.45;4.65;;;;;;;;;;5034013;28;20025;-65
2021/01/16 12:59:59;;;;;;;4.05;3.63;;;;;;;;;;5033941;28;20120;-66
2021/01/16 13:02:25;;;;;;;5.82;3.95;;;;;;;;;;5033891;28;20060;-67
2021/01/16 13:04:52;;;;;;;6.15;3.88;;;;;;;;;;5033960;28;20547;-65
2021/01/16 13:07:17;;;;;;;7.43;4.40;;;;;;;;;;5033837;28;20120;-72
2021/01/16 13:09:43;;;;;;;6.97;4.70;;;;;;;;;;5032033;28;20116;-71
2021/01/16 13:12:09;;;;;;;7.57;5.00;;;;;;;;;;5032132;28;20028;-71
2021/01/16 13:14:53;;;;;;;10.27;6.10;;;;;;;;;;5034002;28;20041;-71
2021/01/16 13:17:19;;;;;;;10.52;5.70;;;;;;;;;;5033789;28;20075;-71
2021/01/16 13:19:46;;;;;;;7.40;4.43;;;;;;;;;;5033161;28;20025;-71
2021/01/16 13:22:16;;;;;;;7.55;4.43;;;;;;;;;;5033664;28;20031;-71
2021/01/16 13:24:44;;;;;;;6.07;4.07;;;;;;;;;;5033530;28;20419;-71
2021/01/16 13:27:21;;;;;;;6.85;4.43;;;;;;;;;;5031716;28;20040;-70
2021/01/16 13:29:53;;;;;;;5.65;3.38;;;;;;;;;;5031733;28;20095;-71
2021/01/16 13:32:22;;;;;;;7.38;4.53;;;;;;;;;;5032762;28;20041;-71
2021/01/16 13:34:57;;;;;;;6.10;4.22;;;;;;;;;;5032686;28;20043;-70
2021/01/16 13:37:27;;;;;;;7.03;4.47;;;;;;;;;;5032706;28;20091;-71
2021/01/16 13:39:54;;;;;;;5.70;4.05;;;;;;;;;;5032645;28;20527;-71
2021/01/16 13:42:24;;;;;;;5.10;4.03;;;;;;;;;;5033081;28;20447;-71
2021/01/16 13:44:54;;;;;;;5.45;3.67;;;;;;;;;;5033092;28;20068;-67
2021/01/16 13:47:20;;;;;;;6.30;4.60;;;;;;;;;;5033660;28;20072;-66
2021/01/16 13:49:46;;;;;;;10.35;5.07;;;;;;;;;;5032712;28;20124;-67
2021/01/16 13:52:13;;;;;;;13.27;6.90;;;;;;;;;;5033204;28;20821;-66
2021/01/16 13:54:40;;;;;;;7.28;5.22;;;;;;;;;;5032453;28;20041;-66
2021/01/16 13:57:26;;;;;;;11.98;6.45;;;;;;;;;;5033557;28;20021;-66
2021/01/16 13:59:56;;;;;;;8.40;4.57;;;;;;;;;;5033455;28;20507;-66
2021/01/16 14:02:28;;;;;;;5.65;3.80;;;;;;;;;;5031908;28;20033;-69
2021/01/16 14:04:54;;;;;;;5.25;3.72;;;;;;;;;;5032000;28;20096;-67
2021/01/16 14:07:23;;;;;;;9.13;4.90;;;;;;;;;;5033101;28;20037;-68
2021/01/16 14:09:49;;;;;;;5.63;3.75;;;;;;;;;;5033322;28;20569;-68
2021/01/16 14:12:15;;;;;;;6.57;3.50;;;;;;;;;;5033501;28;20109;-68
2021/01/16 14:14:41;;;;;;;4.50;3.58;;;;;;;;;;5032774;28;20084;-68
2021/01/16 14:17:09;;;;;;;3.63;2.95;;;;;;;;;;5033454;28;20104;-68
2021/01/16 14:19:35;;;;;;;5.32;3.47;;;;;;;;;;5033352;28;20132;-68
2021/01/16 14:22:01;;;;;;;5.63;3.83;;;;;;;;;;5033548;28;20100;-68
2021/01/16 14:24:27;;;;;;;7.00;4.43;;;;;;;;;;5032184;28;20064;-68
2021/01/16 14:26:57;;;;;;;7.35;4.75;;;;;;;;;;5033542;28;20053;-68
2021/01/16 14:29:24;;;;;;;8.50;4.75;;;;;;;;;;5032631;28;20504;-67
2021/01/16 14:31:50;;;;;;;10.15;5.35;;;;;;;;;;5033747;28;20059;-70
2021/01/16 14:34:18;;;;;;;9.60;5.10;;;;;;;;;;5033864;28;20460;-70
2021/01/16 14:36:53;;;;;;;7.53;4.70;;;;;;;;;;5033921;28;20025;-71